Stations météo

Publicité
Cluanie Inn No 3, Grande-Bretagne (99117): Température de l'air & dewpoint: 10.12.2018 14:00:00 - 16.12.2018 14:00:00 (GMT)Cluanie Inn No 3, Grande-Bretagne (99117): Quantités de précipitations: 10.12.2018 14:00:00 - 16.12.2018 14:00:00 (GMT)
Date & Time tt [°C] td [°C] rr [mm]
16.12.2018 14:00:00 - - -
16.12.2018 13:00:00 3,6 1,9 3,4
16.12.2018 12:00:00 5,1 2,0 0,4
16.12.2018 11:00:00 4,6 2,5 1,2
16.12.2018 10:00:00 5,1 2,0 0,2
16.12.2018 09:00:00 5,4 1,8 0,0
16.12.2018 08:00:00 - - -
16.12.2018 07:00:00 3,5 1,3 3,0
16.12.2018 06:00:00 3,4 1,3 4,6
16.12.2018 05:00:00 4,2 2,8 4,6
16.12.2018 04:00:00 4,0 1,7 1,6
16.12.2018 03:00:00 1,8 0,3 0,2
16.12.2018 02:00:00 2,1 -0,1 0,0
16.12.2018 01:00:00 2,6 -0,1 0,0
16.12.2018 00:00:00 2,2 -0,2 0,6
15.12.2018 23:00:00 1,8 -0,2 1,2
15.12.2018 22:00:00 2,0 0,6 1,2
15.12.2018 21:00:00 1,0 0,2 1,0
15.12.2018 20:00:00 0,9 0,2 1,4
15.12.2018 19:00:00 1,7 0,1 2,4
15.12.2018 18:00:00 3,0 -0,1 1,4
15.12.2018 17:00:00 2,8 0,7 2,0
15.12.2018 16:00:00 2,3 0,5 2,2
15.12.2018 15:00:00 2,1 -0,6 0,4
15.12.2018 14:00:00 2,3 -1,7 0,4
15.12.2018 13:00:00 3,5 -2,9 0,0
15.12.2018 12:00:00 2,9 -2,5 0,0
15.12.2018 11:00:00 2,9 -2,6 0,0
15.12.2018 10:00:00 2,1 -1,8 0,0
15.12.2018 09:00:00 2,1 -1,5 0,0
15.12.2018 08:00:00 3,1 -1,8 0,0
15.12.2018 07:00:00 3,1 -2,2 0,0
15.12.2018 06:00:00 1,9 -1,5 0,0
15.12.2018 05:00:00 2,9 -2,5 0,0
15.12.2018 04:00:00 3,1 -2,9 0,0
15.12.2018 03:00:00 3,0 -3,2 0,0
15.12.2018 02:00:00 2,7 -2,8 0,0
15.12.2018 01:00:00 2,6 -3,0 0,0
15.12.2018 00:00:00 2,3 -3,2 0,0
14.12.2018 23:00:00 2,3 -3,4 0,0
14.12.2018 22:00:00 2,4 -4,1 0,0
14.12.2018 21:00:00 2,4 -4,4 0,0
14.12.2018 20:00:00 2,4 -4,8 0,0
14.12.2018 19:00:00 2,1 -4,8 0,0
14.12.2018 18:00:00 2,2 -4,6 0,0
14.12.2018 17:00:00 1,8 -4,5 0,0
14.12.2018 16:00:00 2,0 -4,9 0,0
14.12.2018 15:00:00 2,3 -4,8 0,0
14.12.2018 14:00:00 2,7 -5,5 0,0
14.12.2018 13:00:00 2,7 -5,2 0,0
14.12.2018 12:00:00 2,5 -4,9 0,0
14.12.2018 11:00:00 1,9 -5,0 0,0
14.12.2018 10:00:00 2,0 -5,1 0,0
14.12.2018 09:00:00 2,4 -5,2 0,0
14.12.2018 08:00:00 2,1 -4,2 0,0
14.12.2018 07:00:00 2,4 -4,1 0,0
14.12.2018 06:00:00 2,7 -4,1 0,0
14.12.2018 05:00:00 2,6 -4,3 0,0
14.12.2018 04:00:00 2,5 -4,7 0,0
14.12.2018 03:00:00 2,3 -5,2 0,0
14.12.2018 02:00:00 3,1 -4,4 0,0
14.12.2018 01:00:00 2,6 -4,1 0,0
14.12.2018 00:00:00 3,7 -4,5 0,0
13.12.2018 23:00:00 3,5 -4,1 0,0
13.12.2018 22:00:00 3,2 -3,0 0,0
13.12.2018 21:00:00 3,2 -3,3 0,0
13.12.2018 20:00:00 3,3 -3,9 0,0
13.12.2018 19:00:00 3,1 -3,5 0,0
13.12.2018 18:00:00 3,8 -4,4 0,0
13.12.2018 17:00:00 3,7 -4,3 0,0
13.12.2018 16:00:00 3,9 -4,3 0,0
13.12.2018 15:00:00 3,9 -3,6 0,0
13.12.2018 14:00:00 4,3 -3,7 0,0
13.12.2018 13:00:00 4,1 -3,6 0,0
13.12.2018 12:00:00 4,3 -4,1 0,0
13.12.2018 11:00:00 4,1 -3,7 0,0
13.12.2018 10:00:00 3,9 -3,5 0,0
13.12.2018 09:00:00 4,1 -3,9 0,0
13.12.2018 08:00:00 3,6 -4,3 0,0
13.12.2018 07:00:00 3,2 -3,8 0,0
13.12.2018 06:00:00 3,0 -4,7 0,0
13.12.2018 05:00:00 2,9 -4,0 0,0
13.12.2018 04:00:00 3,1 -3,7 0,0
13.12.2018 03:00:00 3,4 -3,2 0,0
13.12.2018 02:00:00 3,7 -2,8 0,0
13.12.2018 01:00:00 4,0 -1,2 0,0
13.12.2018 00:00:00 5,2 0,1 0,0
12.12.2018 23:00:00 5,8 1,1 0,0
12.12.2018 22:00:00 - - 0,0
12.12.2018 21:00:00 - - 0,0
12.12.2018 20:00:00 - - 0,0
12.12.2018 19:00:00 - - 0,0
12.12.2018 18:00:00 - - 0,0
12.12.2018 17:00:00 - - 0,0
12.12.2018 16:00:00 - - 0,0
12.12.2018 15:00:00 - - 0,0
12.12.2018 14:00:00 - - 0,0
12.12.2018 13:00:00 - - 0,0
12.12.2018 12:00:00 - - 0,0
12.12.2018 11:00:00 - - 0,0
12.12.2018 10:00:00 - - 0,2
12.12.2018 09:00:00 - - 0,0
12.12.2018 08:00:00 - - 0,0
12.12.2018 07:00:00 - - 0,0
12.12.2018 06:00:00 - - 0,0
12.12.2018 05:00:00 - - 0,0
12.12.2018 04:00:00 - - 0,0
12.12.2018 03:00:00 - - 0,0
12.12.2018 02:00:00 - - 0,0
12.12.2018 01:00:00 - - 0,0
12.12.2018 00:00:00 - - 0,0
11.12.2018 23:00:00 - - 0,0
11.12.2018 22:00:00 - - 0,0
11.12.2018 21:00:00 - - 0,0
11.12.2018 20:00:00 - - 0,0
11.12.2018 19:00:00 - - 0,0
11.12.2018 18:00:00 - - 0,0
11.12.2018 17:00:00 - - 0,0
11.12.2018 16:00:00 - - 0,0
11.12.2018 15:00:00 - - 0,0
11.12.2018 14:00:00 - - 0,0
11.12.2018 13:00:00 - - 0,0
11.12.2018 12:00:00 - - 0,0
11.12.2018 11:00:00 - - 0,0
11.12.2018 10:00:00 - - 0,0
11.12.2018 09:00:00 - - -
11.12.2018 08:00:00 - - 0,0
11.12.2018 07:00:00 - - 0,0
11.12.2018 06:00:00 - - 0,0
11.12.2018 05:00:00 - - 0,0
11.12.2018 04:00:00 - - -
11.12.2018 03:00:00 - - 0,0
11.12.2018 02:00:00 - - -
11.12.2018 01:00:00 - - -
11.12.2018 00:00:00 - - 0,0
10.12.2018 23:00:00 - - -
10.12.2018 22:00:00 - - -
10.12.2018 21:00:00 - - -
10.12.2018 20:00:00 - - -
10.12.2018 19:00:00 - - -
10.12.2018 18:00:00 - - 0,0
10.12.2018 17:00:00 - - 0,0
10.12.2018 16:00:00 - - -
10.12.2018 15:00:00 - - 0,0
10.12.2018 14:00:00 - - -

tt = Température de l'air
td = dewpoint
rr = Quantités de précipitations

stations d'obs. à proximité